sensor_id;sensor_type;location;lat;lon;timestamp;temperature;humidity
68922;DHT22;55959;51.244;5.724;2023-05-16T00:00:24;15.10;62.40
68922;DHT22;55959;51.244;5.724;2023-05-16T00:02:50;15.10;62.40
68922;DHT22;55959;51.244;5.724;2023-05-16T00:05:16;15.10;62.30
68922;DHT22;55959;51.244;5.724;2023-05-16T00:07:43;15.10;62.40
68922;DHT22;55959;51.244;5.724;2023-05-16T00:10:10;15.00;62.40
68922;DHT22;55959;51.244;5.724;2023-05-16T00:12:37;15.00;62.40
68922;DHT22;55959;51.244;5.724;2023-05-16T00:15:07;15.00;62.50
68922;DHT22;55959;51.244;5.724;2023-05-16T00:17:38;15.00;62.60
68922;DHT22;55959;51.244;5.724;2023-05-16T00:20:05;15.00;62.80
68922;DHT22;55959;51.244;5.724;2023-05-16T00:22:36;15.00;62.80
68922;DHT22;55959;51.244;5.724;2023-05-16T00:25:03;15.00;62.70
68922;DHT22;55959;51.244;5.724;2023-05-16T00:27:29;14.90;62.50
68922;DHT22;55959;51.244;5.724;2023-05-16T00:29:55;14.90;62.50
68922;DHT22;55959;51.244;5.724;2023-05-16T00:32:21;14.90;62.40
68922;DHT22;55959;51.244;5.724;2023-05-16T00:34:46;14.90;62.40
68922;DHT22;55959;51.244;5.724;2023-05-16T00:37:12;14.90;62.50
68922;DHT22;55959;51.244;5.724;2023-05-16T00:39:38;14.80;62.40
68922;DHT22;55959;51.244;5.724;2023-05-16T00:42:04;14.80;62.50
68922;DHT22;55959;51.244;5.724;2023-05-16T00:44:32;14.80;62.60
68922;DHT22;55959;51.244;5.724;2023-05-16T00:46:58;14.80;62.70
68922;DHT22;55959;51.244;5.724;2023-05-16T00:49:25;14.80;62.70
68922;DHT22;55959;51.244;5.724;2023-05-16T00:51:52;14.80;62.90
68922;DHT22;55959;51.244;5.724;2023-05-16T00:54:22;14.80;63.00
68922;DHT22;55959;51.244;5.724;2023-05-16T00:56:50;14.80;63.00
68922;DHT22;55959;51.244;5.724;2023-05-16T00:59:18;14.80;63.10
68922;DHT22;55959;51.244;5.724;2023-05-16T01:01:47;14.80;63.20
68922;DHT22;55959;51.244;5.724;2023-05-16T01:04:15;14.80;63.10
68922;DHT22;55959;51.244;5.724;2023-05-16T01:06:42;14.80;63.20
68922;DHT22;55959;51.244;5.724;2023-05-16T01:09:09;14.80;63.20
68922;DHT22;55959;51.244;5.724;2023-05-16T01:12:10;14.80;63.10
68922;DHT22;55959;51.244;5.724;2023-05-16T01:15:10;14.80;63.00
68922;DHT22;55959;51.244;5.724;2023-05-16T01:17:59;14.70;62.90
68922;DHT22;55959;51.244;5.724;2023-05-16T01:20:48;14.70;63.00
68922;DHT22;55959;51.244;5.724;2023-05-16T01:23:48;14.70;63.10
68922;DHT22;55959;51.244;5.724;2023-05-16T01:26:26;14.70;63.20
68922;DHT22;55959;51.244;5.724;2023-05-16T01:28:53;14.70;63.20
68922;DHT22;55959;51.244;5.724;2023-05-16T01:31:20;14.70;63.20
68922;DHT22;55959;51.244;5.724;2023-05-16T01:33:47;14.70;63.30
68922;DHT22;55959;51.244;5.724;2023-05-16T01:36:29;14.70;63.40
68922;DHT22;55959;51.244;5.724;2023-05-16T01:42:15;14.70;63.50
68922;DHT22;55959;51.244;5.724;2023-05-16T01:45:09;14.70;63.40
68922;DHT22;55959;51.244;5.724;2023-05-16T01:47:40;14.60;63.20
68922;DHT22;55959;51.244;5.724;2023-05-16T01:50:16;14.60;63.20
68922;DHT22;55959;51.244;5.724;2023-05-16T01:52:50;14.60;63.20
68922;DHT22;55959;51.244;5.724;2023-05-16T01:55:28;14.60;63.20
68922;DHT22;55959;51.244;5.724;2023-05-16T01:58:03;14.50;63.00
68922;DHT22;55959;51.244;5.724;2023-05-16T02:00:30;14.50;63.10
68922;DHT22;55959;51.244;5.724;2023-05-16T02:02:56;14.50;63.00
68922;DHT22;55959;51.244;5.724;2023-05-16T02:05:22;14.50;63.00
68922;DHT22;55959;51.244;5.724;2023-05-16T02:07:47;14.50;63.00
68922;DHT22;55959;51.244;5.724;2023-05-16T02:10:13;14.50;63.00
68922;DHT22;55959;51.244;5.724;2023-05-16T02:12:39;14.40;62.90
68922;DHT22;55959;51.244;5.724;2023-05-16T02:15:05;14.40;62.80
68922;DHT22;55959;51.244;5.724;2023-05-16T02:17:31;14.40;62.80
68922;DHT22;55959;51.244;5.724;2023-05-16T02:19:57;14.40;62.80
68922;DHT22;55959;51.244;5.724;2023-05-16T02:22:24;14.30;62.60
68922;DHT22;55959;51.244;5.724;2023-05-16T02:24:49;14.30;62.60
68922;DHT22;55959;51.244;5.724;2023-05-16T02:27:15;14.30;62.40
68922;DHT22;55959;51.244;5.724;2023-05-16T02:29:42;14.30;62.50
68922;DHT22;55959;51.244;5.724;2023-05-16T02:32:07;14.20;62.30
68922;DHT22;55959;51.244;5.724;2023-05-16T02:34:33;14.20;62.30
68922;DHT22;55959;51.244;5.724;2023-05-16T02:36:59;14.20;62.20
68922;DHT22;55959;51.244;5.724;2023-05-16T02:39:25;14.10;62.20
68922;DHT22;55959;51.244;5.724;2023-05-16T02:41:51;14.10;62.20
68922;DHT22;55959;51.244;5.724;2023-05-16T02:44:17;14.10;62.20
68922;DHT22;55959;51.244;5.724;2023-05-16T02:46:42;14.10;62.30
68922;DHT22;55959;51.244;5.724;2023-05-16T02:49:08;14.10;62.30
68922;DHT22;55959;51.244;5.724;2023-05-16T02:51:34;14.00;62.20
68922;DHT22;55959;51.244;5.724;2023-05-16T02:53:59;14.00;62.20
68922;DHT22;55959;51.244;5.724;2023-05-16T02:56:25;14.00;62.20
68922;DHT22;55959;51.244;5.724;2023-05-16T02:58:53;13.90;62.00
68922;DHT22;55959;51.244;5.724;2023-05-16T03:01:19;13.90;62.00
68922;DHT22;55959;51.244;5.724;2023-05-16T03:03:45;13.90;62.00
68922;DHT22;55959;51.244;5.724;2023-05-16T03:06:10;13.90;62.10
68922;DHT22;55959;51.244;5.724;2023-05-16T03:08:37;13.80;62.00
68922;DHT22;55959;51.244;5.724;2023-05-16T03:11:03;13.80;62.70
68922;DHT22;55959;51.244;5.724;2023-05-16T03:13:28;13.80;62.20
68922;DHT22;55959;51.244;5.724;2023-05-16T03:15:55;13.70;62.20
68922;DHT22;55959;51.244;5.724;2023-05-16T03:18:20;13.70;62.10
68922;DHT22;55959;51.244;5.724;2023-05-16T03:20:46;13.60;62.00
68922;DHT22;55959;51.244;5.724;2023-05-16T03:23:12;13.60;62.10
68922;DHT22;55959;51.244;5.724;2023-05-16T03:25:38;13.60;62.20
68922;DHT22;55959;51.244;5.724;2023-05-16T03:28:05;13.60;62.30
68922;DHT22;55959;51.244;5.724;2023-05-16T03:30:33;13.50;62.40
68922;DHT22;55959;51.244;5.724;2023-05-16T03:32:59;13.50;62.40
68922;DHT22;55959;51.244;5.724;2023-05-16T03:35:26;13.50;62.40
68922;DHT22;55959;51.244;5.724;2023-05-16T03:37:52;13.40;62.40
68922;DHT22;55959;51.244;5.724;2023-05-16T03:40:18;13.40;62.50
68922;DHT22;55959;51.244;5.724;2023-05-16T03:42:44;13.40;62.50
68922;DHT22;55959;51.244;5.724;2023-05-16T03:45:10;13.30;62.50
68922;DHT22;55959;51.244;5.724;2023-05-16T03:47:36;13.30;62.60
68922;DHT22;55959;51.244;5.724;2023-05-16T03:50:02;13.30;62.70
68922;DHT22;55959;51.244;5.724;2023-05-16T03:52:29;13.20;62.80
68922;DHT22;55959;51.244;5.724;2023-05-16T03:54:55;13.20;62.80
68922;DHT22;55959;51.244;5.724;2023-05-16T03:57:21;13.20;62.90
68922;DHT22;55959;51.244;5.724;2023-05-16T03:59:47;13.20;63.00
68922;DHT22;55959;51.244;5.724;2023-05-16T04:02:13;13.20;62.90
68922;DHT22;55959;51.244;5.724;2023-05-16T04:04:39;13.10;62.90
68922;DHT22;55959;51.244;5.724;2023-05-16T04:07:05;13.10;62.90
68922;DHT22;55959;51.244;5.724;2023-05-16T04:09:30;13.10;62.90
68922;DHT22;55959;51.244;5.724;2023-05-16T04:11:57;13.00;63.00
68922;DHT22;55959;51.244;5.724;2023-05-16T04:14:26;13.00;63.10
68922;DHT22;55959;51.244;5.724;2023-05-16T04:16:52;13.00;63.10
68922;DHT22;55959;51.244;5.724;2023-05-16T04:19:17;13.00;63.20
68922;DHT22;55959;51.244;5.724;2023-05-16T04:21:43;13.00;63.20
68922;DHT22;55959;51.244;5.724;2023-05-16T04:24:09;13.00;64.10
68922;DHT22;55959;51.244;5.724;2023-05-16T04:26:35;12.90;63.20
68922;DHT22;55959;51.244;5.724;2023-05-16T04:29:03;13.00;63.20
68922;DHT22;55959;51.244;5.724;2023-05-16T04:31:29;12.90;63.20
68922;DHT22;55959;51.244;5.724;2023-05-16T04:33:55;12.90;63.20
68922;DHT22;55959;51.244;5.724;2023-05-16T04:36:23;12.90;63.20
68922;DHT22;55959;51.244;5.724;2023-05-16T04:38:49;12.90;63.40
68922;DHT22;55959;51.244;5.724;2023-05-16T04:41:15;12.90;63.40
68922;DHT22;55959;51.244;5.724;2023-05-16T04:43:41;12.80;63.60
68922;DHT22;55959;51.244;5.724;2023-05-16T04:46:08;12.90;63.80
68922;DHT22;55959;51.244;5.724;2023-05-16T04:48:34;12.90;64.00
68922;DHT22;55959;51.244;5.724;2023-05-16T04:51:00;12.90;64.40
68922;DHT22;55959;51.244;5.724;2023-05-16T04:53:26;12.90;64.50
68922;DHT22;55959;51.244;5.724;2023-05-16T04:55:52;12.90;64.80
68922;DHT22;55959;51.244;5.724;2023-05-16T04:58:17;12.90;64.90
68922;DHT22;55959;51.244;5.724;2023-05-16T05:00:43;12.90;64.80
68922;DHT22;55959;51.244;5.724;2023-05-16T05:03:09;12.90;64.80
68922;DHT22;55959;51.244;5.724;2023-05-16T05:05:34;13.00;64.80
68922;DHT22;55959;51.244;5.724;2023-05-16T05:08:00;13.00;64.70
68922;DHT22;55959;51.244;5.724;2023-05-16T05:10:26;13.00;64.60
68922;DHT22;55959;51.244;5.724;2023-05-16T05:12:52;13.00;64.50
68922;DHT22;55959;51.244;5.724;2023-05-16T05:15:18;13.00;64.50
68922;DHT22;55959;51.244;5.724;2023-05-16T05:17:44;13.00;64.50
68922;DHT22;55959;51.244;5.724;2023-05-16T05:20:10;13.00;64.30
68922;DHT22;55959;51.244;5.724;2023-05-16T05:22:36;13.10;64.20
68922;DHT22;55959;51.244;5.724;2023-05-16T05:25:03;13.10;64.20
68922;DHT22;55959;51.244;5.724;2023-05-16T05:27:31;13.10;64.10
68922;DHT22;55959;51.244;5.724;2023-05-16T05:29:57;13.10;64.00
68922;DHT22;55959;51.244;5.724;2023-05-16T05:32:22;13.10;64.20
68922;DHT22;55959;51.244;5.724;2023-05-16T05:34:48;13.10;64.30
68922;DHT22;55959;51.244;5.724;2023-05-16T05:37:14;13.10;64.40
68922;DHT22;55959;51.244;5.724;2023-05-16T05:39:40;13.10;64.70
68922;DHT22;55959;51.244;5.724;2023-05-16T05:42:05;13.10;65.00
68922;DHT22;55959;51.244;5.724;2023-05-16T05:44:31;13.20;65.20
68922;DHT22;55959;51.244;5.724;2023-05-16T05:46:58;13.20;65.30
68922;DHT22;55959;51.244;5.724;2023-05-16T05:49:25;13.20;65.50
68922;DHT22;55959;51.244;5.724;2023-05-16T05:51:51;13.30;65.80
68922;DHT22;55959;51.244;5.724;2023-05-16T05:54:18;13.40;66.10
68922;DHT22;55959;51.244;5.724;2023-05-16T05:56:44;13.50;66.40
68922;DHT22;55959;51.244;5.724;2023-05-16T05:59:10;13.60;66.60
68922;DHT22;55959;51.244;5.724;2023-05-16T06:01:35;13.80;66.60
68922;DHT22;55959;51.244;5.724;2023-05-16T06:04:02;13.90;66.60
68922;DHT22;55959;51.244;5.724;2023-05-16T06:06:28;14.00;66.30
68922;DHT22;55959;51.244;5.724;2023-05-16T06:08:54;14.20;66.20
68922;DHT22;55959;51.244;5.724;2023-05-16T06:11:19;14.30;64.50
68922;DHT22;55959;51.244;5.724;2023-05-16T06:13:46;14.40;63.50
68922;DHT22;55959;51.244;5.724;2023-05-16T06:16:13;14.60;63.60
68922;DHT22;55959;51.244;5.724;2023-05-16T06:18:38;14.70;63.40
68922;DHT22;55959;51.244;5.724;2023-05-16T06:21:04;14.80;64.20
68922;DHT22;55959;51.244;5.724;2023-05-16T06:23:32;15.00;64.00
68922;DHT22;55959;51.244;5.724;2023-05-16T06:25:57;15.20;63.80
68922;DHT22;55959;51.244;5.724;2023-05-16T06:28:23;15.40;63.10
68922;DHT22;55959;51.244;5.724;2023-05-16T06:30:49;15.50;62.60
68922;DHT22;55959;51.244;5.724;2023-05-16T06:33:16;15.70;62.20
68922;DHT22;55959;51.244;5.724;2023-05-16T06:35:44;15.80;62.20
68922;DHT22;55959;51.244;5.724;2023-05-16T06:38:10;16.00;61.30
68922;DHT22;55959;51.244;5.724;2023-05-16T06:40:35;16.10;61.30
68922;DHT22;55959;51.244;5.724;2023-05-16T06:43:02;16.30;61.10
68922;DHT22;55959;51.244;5.724;2023-05-16T06:45:28;16.40;60.20
68922;DHT22;55959;51.244;5.724;2023-05-16T06:47:54;16.60;59.30
68922;DHT22;55959;51.244;5.724;2023-05-16T06:50:21;16.70;58.90
68922;DHT22;55959;51.244;5.724;2023-05-16T06:52:47;16.80;58.90
68922;DHT22;55959;51.244;5.724;2023-05-16T06:55:12;16.90;57.70
68922;DHT22;55959;51.244;5.724;2023-05-16T06:57:38;17.00;57.80
68922;DHT22;55959;51.244;5.724;2023-05-16T07:00:05;17.20;57.50
68922;DHT22;55959;51.244;5.724;2023-05-16T07:02:31;17.30;56.80
68922;DHT22;55959;51.244;5.724;2023-05-16T07:04:57;17.30;55.90
68922;DHT22;55959;51.244;5.724;2023-05-16T07:07:22;17.40;54.80
68922;DHT22;55959;51.244;5.724;2023-05-16T07:09:48;17.30;54.50
68922;DHT22;55959;51.244;5.724;2023-05-16T07:12:14;17.40;54.10
68922;DHT22;55959;51.244;5.724;2023-05-16T07:14:40;17.40;53.60
68922;DHT22;55959;51.244;5.724;2023-05-16T07:17:06;17.30;53.60
68922;DHT22;55959;51.244;5.724;2023-05-16T07:19:31;17.30;54.20
68922;DHT22;55959;51.244;5.724;2023-05-16T07:21:57;17.30;53.80
68922;DHT22;55959;51.244;5.724;2023-05-16T07:24:23;17.20;53.50
68922;DHT22;55959;51.244;5.724;2023-05-16T07:26:49;17.20;53.50
68922;DHT22;55959;51.244;5.724;2023-05-16T07:29:16;17.20;52.20
68922;DHT22;55959;51.244;5.724;2023-05-16T07:31:41;17.10;53.50
68922;DHT22;55959;51.244;5.724;2023-05-16T07:34:09;17.10;53.40
68922;DHT22;55959;51.244;5.724;2023-05-16T07:36:36;17.00;53.50
68922;DHT22;55959;51.244;5.724;2023-05-16T07:39:03;17.00;52.70
68922;DHT22;55959;51.244;5.724;2023-05-16T07:41:29;16.90;52.50
68922;DHT22;55959;51.244;5.724;2023-05-16T07:43:55;16.90;52.80
68922;DHT22;55959;51.244;5.724;2023-05-16T07:46:21;16.90;53.10
68922;DHT22;55959;51.244;5.724;2023-05-16T07:48:47;16.90;53.30
68922;DHT22;55959;51.244;5.724;2023-05-16T07:51:12;16.90;53.10
68922;DHT22;55959;51.244;5.724;2023-05-16T07:53:38;16.90;52.80
68922;DHT22;55959;51.244;5.724;2023-05-16T07:56:04;16.90;53.10
68922;DHT22;55959;51.244;5.724;2023-05-16T07:58:31;16.90;52.90
68922;DHT22;55959;51.244;5.724;2023-05-16T08:00:57;16.90;52.50
68922;DHT22;55959;51.244;5.724;2023-05-16T08:03:23;16.90;52.70
68922;DHT22;55959;51.244;5.724;2023-05-16T08:05:49;16.90;52.80
68922;DHT22;55959;51.244;5.724;2023-05-16T08:08:16;17.00;53.20
68922;DHT22;55959;51.244;5.724;2023-05-16T08:10:42;17.00;52.80
68922;DHT22;55959;51.244;5.724;2023-05-16T08:13:08;17.00;52.10
68922;DHT22;55959;51.244;5.724;2023-05-16T08:15:34;17.00;52.10
68922;DHT22;55959;51.244;5.724;2023-05-16T08:18:00;17.00;51.80
68922;DHT22;55959;51.244;5.724;2023-05-16T08:20:26;17.00;52.10
68922;DHT22;55959;51.244;5.724;2023-05-16T08:22:53;17.00;51.80
68922;DHT22;55959;51.244;5.724;2023-05-16T08:25:19;17.00;51.60
68922;DHT22;55959;51.244;5.724;2023-05-16T08:27:45;17.00;51.90
68922;DHT22;55959;51.244;5.724;2023-05-16T08:30:13;17.00;51.90
68922;DHT22;55959;51.244;5.724;2023-05-16T08:32:39;17.10;52.10
68922;DHT22;55959;51.244;5.724;2023-05-16T08:35:05;17.10;51.90
68922;DHT22;55959;51.244;5.724;2023-05-16T08:37:31;17.10;52.20
68922;DHT22;55959;51.244;5.724;2023-05-16T08:39:58;17.10;52.10
68922;DHT22;55959;51.244;5.724;2023-05-16T08:42:23;17.10;52.00
68922;DHT22;55959;51.244;5.724;2023-05-16T08:44:49;17.10;51.90
68922;DHT22;55959;51.244;5.724;2023-05-16T08:47:18;17.10;50.80
68922;DHT22;55959;51.244;5.724;2023-05-16T08:49:47;17.10;51.20
68922;DHT22;55959;51.244;5.724;2023-05-16T08:52:18;17.10;50.80
68922;DHT22;55959;51.244;5.724;2023-05-16T08:54:45;17.10;50.90
68922;DHT22;55959;51.244;5.724;2023-05-16T08:57:13;17.10;51.30
68922;DHT22;55959;51.244;5.724;2023-05-16T08:59:39;17.10;51.80
68922;DHT22;55959;51.244;5.724;2023-05-16T09:02:06;17.10;50.30
68922;DHT22;55959;51.244;5.724;2023-05-16T09:04:33;17.20;49.80
68922;DHT22;55959;51.244;5.724;2023-05-16T09:06:58;17.10;49.30
68922;DHT22;55959;51.244;5.724;2023-05-16T09:09:24;17.20;49.50
68922;DHT22;55959;51.244;5.724;2023-05-16T09:11:50;17.20;50.00
68922;DHT22;55959;51.244;5.724;2023-05-16T09:14:16;17.20;50.10
68922;DHT22;55959;51.244;5.724;2023-05-16T09:16:43;17.20;49.80
68922;DHT22;55959;51.244;5.724;2023-05-16T09:19:11;17.20;49.30
68922;DHT22;55959;51.244;5.724;2023-05-16T09:21:39;17.20;49.60
68922;DHT22;55959;51.244;5.724;2023-05-16T09:24:06;17.20;49.50
68922;DHT22;55959;51.244;5.724;2023-05-16T09:26:35;17.30;49.50
68922;DHT22;55959;51.244;5.724;2023-05-16T09:29:12;17.30;50.10
68922;DHT22;55959;51.244;5.724;2023-05-16T09:31:38;17.40;50.40
68922;DHT22;55959;51.244;5.724;2023-05-16T09:34:08;17.40;49.70
68922;DHT22;55959;51.244;5.724;2023-05-16T09:36:37;17.40;49.40
68922;DHT22;55959;51.244;5.724;2023-05-16T09:39:04;17.50;48.90
68922;DHT22;55959;51.244;5.724;2023-05-16T09:41:35;17.50;49.50
68922;DHT22;55959;51.244;5.724;2023-05-16T09:44:07;17.50;49.80
68922;DHT22;55959;51.244;5.724;2023-05-16T09:46:33;17.60;49.60
68922;DHT22;55959;51.244;5.724;2023-05-16T09:49:01;17.60;49.10
68922;DHT22;55959;51.244;5.724;2023-05-16T09:51:27;17.60;49.00
68922;DHT22;55959;51.244;5.724;2023-05-16T09:53:53;17.60;48.70
68922;DHT22;55959;51.244;5.724;2023-05-16T09:56:19;17.60;49.10
68922;DHT22;55959;51.244;5.724;2023-05-16T09:58:45;17.70;48.20
68922;DHT22;55959;51.244;5.724;2023-05-16T10:01:12;17.70;48.70
68922;DHT22;55959;51.244;5.724;2023-05-16T10:03:39;17.70;49.30
68922;DHT22;55959;51.244;5.724;2023-05-16T10:06:06;17.70;49.30
68922;DHT22;55959;51.244;5.724;2023-05-16T10:08:35;17.80;49.50
68922;DHT22;55959;51.244;5.724;2023-05-16T10:11:03;17.80;49.80
68922;DHT22;55959;51.244;5.724;2023-05-16T10:13:33;17.90;49.60
68922;DHT22;55959;51.244;5.724;2023-05-16T10:16:05;17.90;50.00
68922;DHT22;55959;51.244;5.724;2023-05-16T10:18:32;17.90;49.70
68922;DHT22;55959;51.244;5.724;2023-05-16T10:21:04;18.00;49.00
68922;DHT22;55959;51.244;5.724;2023-05-16T10:23:32;18.10;47.70
68922;DHT22;55959;51.244;5.724;2023-05-16T10:26:01;18.10;47.60
68922;DHT22;55959;51.244;5.724;2023-05-16T10:28:28;18.20;48.30
68922;DHT22;55959;51.244;5.724;2023-05-16T10:30:54;18.20;48.10
68922;DHT22;55959;51.244;5.724;2023-05-16T10:33:20;18.30;48.60
68922;DHT22;55959;51.244;5.724;2023-05-16T10:35:47;18.30;48.70
68922;DHT22;55959;51.244;5.724;2023-05-16T10:38:16;18.40;48.50
68922;DHT22;55959;51.244;5.724;2023-05-16T10:40:42;18.40;48.20
68922;DHT22;55959;51.244;5.724;2023-05-16T10:43:09;18.40;47.70
68922;DHT22;55959;51.244;5.724;2023-05-16T10:45:39;18.40;47.10
68922;DHT22;55959;51.244;5.724;2023-05-16T10:48:06;18.50;46.80
68922;DHT22;55959;51.244;5.724;2023-05-16T10:53:28;18.40;47.00
68922;DHT22;55959;51.244;5.724;2023-05-16T11:01:28;18.50;48.10
68922;DHT22;55959;51.244;5.724;2023-05-16T11:04:04;18.50;47.30
68922;DHT22;55959;51.244;5.724;2023-05-16T11:11:56;18.60;48.40
68922;DHT22;55959;51.244;5.724;2023-05-16T11:14:26;18.70;48.50
68922;DHT22;55959;51.244;5.724;2023-05-16T11:17:19;18.70;48.00
68922;DHT22;55959;51.244;5.724;2023-05-16T11:19:57;18.80;47.40
68922;DHT22;55959;51.244;5.724;2023-05-16T11:22:27;18.80;47.20
68922;DHT22;55959;51.244;5.724;2023-05-16T11:25:05;18.90;48.30
68922;DHT22;55959;51.244;5.724;2023-05-16T11:32:36;19.00;45.30
68922;DHT22;55959;51.244;5.724;2023-05-16T11:35:03;19.00;44.60
68922;DHT22;55959;51.244;5.724;2023-05-16T11:37:31;19.10;45.20
68922;DHT22;55959;51.244;5.724;2023-05-16T11:40:01;19.10;45.50
68922;DHT22;55959;51.244;5.724;2023-05-16T11:42:34;19.10;45.60
68922;DHT22;55959;51.244;5.724;2023-05-16T11:45:09;19.10;45.00
68922;DHT22;55959;51.244;5.724;2023-05-16T11:47:40;19.10;45.50
68922;DHT22;55959;51.244;5.724;2023-05-16T11:50:13;19.10;45.10
68922;DHT22;55959;51.244;5.724;2023-05-16T11:52:46;19.20;44.50
68922;DHT22;55959;51.244;5.724;2023-05-16T11:55:13;19.10;43.70
68922;DHT22;55959;51.244;5.724;2023-05-16T11:57:41;19.20;44.50
68922;DHT22;55959;51.244;5.724;2023-05-16T12:00:15;19.20;44.20
68922;DHT22;55959;51.244;5.724;2023-05-16T12:02:44;19.20;44.60
68922;DHT22;55959;51.244;5.724;2023-05-16T12:05:12;19.20;44.40
68922;DHT22;55959;51.244;5.724;2023-05-16T12:07:38;19.20;44.10
68922;DHT22;55959;51.244;5.724;2023-05-16T12:10:10;19.20;44.70
68922;DHT22;55959;51.244;5.724;2023-05-16T12:12:39;19.20;45.60
68922;DHT22;55959;51.244;5.724;2023-05-16T12:15:07;19.20;45.50
68922;DHT22;55959;51.244;5.724;2023-05-16T12:17:37;19.30;44.20
68922;DHT22;55959;51.244;5.724;2023-05-16T12:20:04;19.30;44.80
68922;DHT22;55959;51.244;5.724;2023-05-16T12:22:32;19.30;45.10
68922;DHT22;55959;51.244;5.724;2023-05-16T12:24:59;19.40;44.00
68922;DHT22;55959;51.244;5.724;2023-05-16T12:28:02;19.40;43.80
68922;DHT22;55959;51.244;5.724;2023-05-16T12:30:30;19.40;44.20
68922;DHT22;55959;51.244;5.724;2023-05-16T12:33:01;19.40;44.60
68922;DHT22;55959;51.244;5.724;2023-05-16T12:35:30;19.40;44.60
68922;DHT22;55959;51.244;5.724;2023-05-16T12:37:56;19.50;44.40
68922;DHT22;55959;51.244;5.724;2023-05-16T12:40:22;19.50;44.30
68922;DHT22;55959;51.244;5.724;2023-05-16T12:42:52;19.60;44.60
68922;DHT22;55959;51.244;5.724;2023-05-16T12:45:19;19.60;44.80
68922;DHT22;55959;51.244;5.724;2023-05-16T12:47:46;19.70;45.40
68922;DHT22;55959;51.244;5.724;2023-05-16T12:50:13;19.70;43.80
68922;DHT22;55959;51.244;5.724;2023-05-16T12:52:58;19.80;43.90
68922;DHT22;55959;51.244;5.724;2023-05-16T12:55:24;19.90;44.60
68922;DHT22;55959;51.244;5.724;2023-05-16T12:57:51;19.90;44.80
68922;DHT22;55959;51.244;5.724;2023-05-16T13:00:19;20.00;45.20
68922;DHT22;55959;51.244;5.724;2023-05-16T13:02:46;20.10;43.00
68922;DHT22;55959;51.244;5.724;2023-05-16T13:05:12;20.10;43.50
68922;DHT22;55959;51.244;5.724;2023-05-16T13:07:39;20.10;43.40
68922;DHT22;55959;51.244;5.724;2023-05-16T13:10:09;20.20;43.40
68922;DHT22;55959;51.244;5.724;2023-05-16T13:12:36;20.20;43.30
68922;DHT22;55959;51.244;5.724;2023-05-16T13:15:03;20.20;42.70
68922;DHT22;55959;51.244;5.724;2023-05-16T13:17:35;20.20;43.20
68922;DHT22;55959;51.244;5.724;2023-05-16T13:20:01;20.20;42.80
68922;DHT22;55959;51.244;5.724;2023-05-16T13:22:32;20.20;42.70
68922;DHT22;55959;51.244;5.724;2023-05-16T13:24:58;20.20;42.50
68922;DHT22;55959;51.244;5.724;2023-05-16T13:27:25;20.20;42.30
68922;DHT22;55959;51.244;5.724;2023-05-16T13:29:50;20.20;42.80
68922;DHT22;55959;51.244;5.724;2023-05-16T13:32:16;20.20;43.00
68922;DHT22;55959;51.244;5.724;2023-05-16T13:34:43;20.20;43.00
68922;DHT22;55959;51.244;5.724;2023-05-16T13:37:09;20.20;43.40
68922;DHT22;55959;51.244;5.724;2023-05-16T13:39:35;20.20;42.80
68922;DHT22;55959;51.244;5.724;2023-05-16T13:42:01;20.20;43.20
68922;DHT22;55959;51.244;5.724;2023-05-16T13:44:28;20.20;42.80
68922;DHT22;55959;51.244;5.724;2023-05-16T13:46:55;20.20;42.80
68922;DHT22;55959;51.244;5.724;2023-05-16T13:49:22;20.20;43.20
68922;DHT22;55959;51.244;5.724;2023-05-16T13:51:48;20.20;43.10
68922;DHT22;55959;51.244;5.724;2023-05-16T13:54:14;20.20;42.80
68922;DHT22;55959;51.244;5.724;2023-05-16T13:56:39;20.10;42.40
68922;DHT22;55959;51.244;5.724;2023-05-16T13:59:05;20.10;42.20
68922;DHT22;55959;51.244;5.724;2023-05-16T14:01:31;20.00;42.70
68922;DHT22;55959;51.244;5.724;2023-05-16T14:03:57;20.00;42.90
68922;DHT22;55959;51.244;5.724;2023-05-16T14:06:23;20.00;43.50
68922;DHT22;55959;51.244;5.724;2023-05-16T14:08:49;20.00;43.20
68922;DHT22;55959;51.244;5.724;2023-05-16T14:11:16;19.90;43.60
68922;DHT22;55959;51.244;5.724;2023-05-16T14:13:44;20.00;43.80
68922;DHT22;55959;51.244;5.724;2023-05-16T14:16:10;20.00;43.80
68922;DHT22;55959;51.244;5.724;2023-05-16T14:18:36;19.90;43.20
68922;DHT22;55959;51.244;5.724;2023-05-16T14:21:02;20.00;43.80
68922;DHT22;55959;51.244;5.724;2023-05-16T14:23:27;19.90;44.30
68922;DHT22;55959;51.244;5.724;2023-05-16T14:25:53;19.90;44.40
68922;DHT22;55959;51.244;5.724;2023-05-16T14:28:20;19.90;44.10
68922;DHT22;55959;51.244;5.724;2023-05-16T14:30:45;19.90;44.20
68922;DHT22;55959;51.244;5.724;2023-05-16T14:33:11;19.90;44.60
68922;DHT22;55959;51.244;5.724;2023-05-16T14:35:38;20.00;44.60
68922;DHT22;55959;51.244;5.724;2023-05-16T14:38:04;19.90;44.80
68922;DHT22;55959;51.244;5.724;2023-05-16T14:40:31;20.00;44.00
68922;DHT22;55959;51.244;5.724;2023-05-16T14:42:58;20.00;43.90
68922;DHT22;55959;51.244;5.724;2023-05-16T14:45:24;20.00;44.30
68922;DHT22;55959;51.244;5.724;2023-05-16T14:47:50;20.00;43.90
68922;DHT22;55959;51.244;5.724;2023-05-16T14:50:17;20.00;43.80
68922;DHT22;55959;51.244;5.724;2023-05-16T14:52:43;20.00;44.00
68922;DHT22;55959;51.244;5.724;2023-05-16T14:55:09;20.00;43.90
68922;DHT22;55959;51.244;5.724;2023-05-16T14:57:35;20.00;44.20
68922;DHT22;55959;51.244;5.724;2023-05-16T15:00:01;20.00;44.00
68922;DHT22;55959;51.244;5.724;2023-05-16T15:02:27;20.00;44.50
68922;DHT22;55959;51.244;5.724;2023-05-16T15:04:52;20.00;44.00
68922;DHT22;55959;51.244;5.724;2023-05-16T15:07:19;20.00;43.70
68922;DHT22;55959;51.244;5.724;2023-05-16T15:09:45;20.00;43.70
68922;DHT22;55959;51.244;5.724;2023-05-16T15:12:11;19.90;43.30
68922;DHT22;55959;51.244;5.724;2023-05-16T15:14:36;19.90;43.20
68922;DHT22;55959;51.244;5.724;2023-05-16T15:17:02;19.90;43.70
68922;DHT22;55959;51.244;5.724;2023-05-16T15:19:28;19.90;43.80
68922;DHT22;55959;51.244;5.724;2023-05-16T15:21:54;19.80;43.40
68922;DHT22;55959;51.244;5.724;2023-05-16T15:24:20;19.80;43.80
68922;DHT22;55959;51.244;5.724;2023-05-16T15:26:45;19.80;44.00
68922;DHT22;55959;51.244;5.724;2023-05-16T15:29:11;19.70;43.50
68922;DHT22;55959;51.244;5.724;2023-05-16T15:31:37;19.70;43.80
68922;DHT22;55959;51.244;5.724;2023-05-16T15:34:03;19.70;44.10
68922;DHT22;55959;51.244;5.724;2023-05-16T15:36:30;19.70;44.10
68922;DHT22;55959;51.244;5.724;2023-05-16T15:38:56;19.70;43.90
68922;DHT22;55959;51.244;5.724;2023-05-16T15:41:22;19.60;43.90
68922;DHT22;55959;51.244;5.724;2023-05-16T15:43:48;19.60;43.50
68922;DHT22;55959;51.244;5.724;2023-05-16T15:46:13;19.70;43.70
68922;DHT22;55959;51.244;5.724;2023-05-16T15:48:39;19.60;43.70
68922;DHT22;55959;51.244;5.724;2023-05-16T15:51:11;19.60;44.00
68922;DHT22;55959;51.244;5.724;2023-05-16T15:53:38;19.60;44.10